Time;durP1;ratioP1;P1;durP2;ratioP2;P2;SDS_P1;SDS_P2;PMS_P1;PMS_P2;Temp;Humidity;BMP_temperature;BMP_pressure;BME280_temperature;BME280_humidity;BME280_pressure;Samples;Min_cycle;Max_cycle;Signal;HPM_P1;HPM_P2
2023/03/28 00:01:41;;;;;;;13.67;5.07;;;;;;;;;;5077707;28;20979;-68
2023/03/28 00:04:10;;;;;;;14.83;6.60;;;;;;;;;;5059789;28;20530;-67
2023/03/28 00:06:37;;;;;;;16.37;5.27;;;;;;;;;;5060087;28;20205;-67
2023/03/28 00:09:03;;;;;;;15.43;5.97;;;;;;;;;;5077974;28;20443;-67
2023/03/28 00:11:29;;;;;;;17.07;4.90;;;;;;;;;;5077669;28;20511;-66
2023/03/28 00:13:59;;;;;;;10.20;4.23;;;;;;;;;;5077740;28;20439;-68
2023/03/28 00:16:25;;;;;;;16.67;4.93;;;;;;;;;;5059947;28;20249;-67
2023/03/28 00:18:51;;;;;;;11.27;4.33;;;;;;;;;;5077894;28;20412;-67
2023/03/28 00:21:22;;;;;;;12.80;4.13;;;;;;;;;;5077866;28;20431;-67
2023/03/28 00:23:52;;;;;;;16.67;4.60;;;;;;;;;;5077629;28;20854;-68
2023/03/28 00:26:19;;;;;;;10.13;3.47;;;;;;;;;;5077735;28;20427;-68
2023/03/28 00:28:46;;;;;;;10.03;3.60;;;;;;;;;;5077658;28;20497;-66
2023/03/28 00:31:12;;;;;;;16.47;4.10;;;;;;;;;;5077326;28;20486;-67
2023/03/28 00:33:38;;;;;;;14.53;4.10;;;;;;;;;;5077445;28;20810;-66
2023/03/28 00:36:04;;;;;;;20.00;4.37;;;;;;;;;;5077576;28;20623;-68
2023/03/28 00:38:30;;;;;;;12.70;3.60;;;;;;;;;;5077246;28;20174;-67
2023/03/28 00:40:56;;;;;;;12.80;3.83;;;;;;;;;;5077174;28;20431;-67
2023/03/28 00:43:36;;;;;;;13.17;3.73;;;;;;;;;;5077803;28;20499;-67
2023/03/28 00:46:02;;;;;;;13.87;4.67;;;;;;;;;;5059292;28;20412;-68
2023/03/28 00:48:29;;;;;;;13.80;4.60;;;;;;;;;;5079605;28;20444;-66
2023/03/28 00:50:56;;;;;;;14.98;4.63;;;;;;;;;;5081600;28;20926;-68
2023/03/28 00:53:25;;;;;;;12.23;4.30;;;;;;;;;;5080651;28;20173;-66
2023/03/28 00:55:56;;;;;;;11.57;4.37;;;;;;;;;;5080442;28;20408;-67
2023/03/28 00:58:24;;;;;;;14.17;3.73;;;;;;;;;;5080333;28;20820;-67
2023/03/28 01:00:50;;;;;;;19.67;3.80;;;;;;;;;;5079534;28;20448;-68
2023/03/28 01:03:18;;;;;;;12.33;3.87;;;;;;;;;;5062366;28;20785;-68
2023/03/28 01:05:46;;;;;;;12.90;4.13;;;;;;;;;;5074275;22;20488;-68
2023/03/28 01:08:16;;;;;;;15.73;4.03;;;;;;;;;;5057750;28;20555;-71
2023/03/28 01:10:43;;;;;;;15.53;4.13;;;;;;;;;;5075807;28;20463;-70
2023/03/28 01:13:10;;;;;;;13.53;3.93;;;;;;;;;;5075292;28;20404;-70
2023/03/28 01:15:36;;;;;;;23.63;5.53;;;;;;;;;;5057467;28;20449;-70
2023/03/28 01:18:09;;;;;;;12.23;4.50;;;;;;;;;;5057508;28;20823;-70
2023/03/28 01:20:41;;;;;;;13.07;4.57;;;;;;;;;;5075606;28;20392;-70
2023/03/28 01:23:07;;;;;;;13.13;4.37;;;;;;;;;;5075251;28;20416;-70
2023/03/28 01:25:43;;;;;;;11.00;4.10;;;;;;;;;;5075471;28;20432;-70
2023/03/28 01:28:30;;;;;;;16.70;4.20;;;;;;;;;;5075441;28;20581;-70
2023/03/28 01:30:55;;;;;;;13.43;4.50;;;;;;;;;;5057172;28;20509;-70
2023/03/28 01:33:30;;;;;;;18.33;4.53;;;;;;;;;;5075191;28;20419;-68
2023/03/28 01:36:15;;;;;;;10.50;5.00;;;;;;;;;;5056970;28;20521;-70
2023/03/28 01:38:42;;;;;;;16.13;4.70;;;;;;;;;;5056915;28;20557;-70
2023/03/28 01:41:08;;;;;;;9.23;4.63;;;;;;;;;;5075140;28;20414;-70
2023/03/28 01:43:40;;;;;;;15.97;4.67;;;;;;;;;;5075018;28;20883;-70
2023/03/28 01:46:18;;;;;;;16.73;5.13;;;;;;;;;;5074820;28;20668;-70
2023/03/28 01:48:53;;;;;;;21.47;5.30;;;;;;;;;;5056444;28;20467;-69
2023/03/28 01:51:38;;;;;;;14.10;4.67;;;;;;;;;;5056709;28;20424;-69
2023/03/28 01:54:25;;;;;;;16.60;4.87;;;;;;;;;;5056603;28;20411;-70
2023/03/28 01:57:00;;;;;;;11.50;4.87;;;;;;;;;;5056437;28;20831;-70
2023/03/28 01:59:29;;;;;;;18.07;5.13;;;;;;;;;;5056430;28;20414;-70
2023/03/28 02:02:14;;;;;;;16.53;5.07;;;;;;;;;;5074372;28;20491;-70
2023/03/28 02:04:41;;;;;;;16.53;5.23;;;;;;;;;;5074650;28;20404;-68
2023/03/28 02:07:08;;;;;;;20.87;6.40;;;;;;;;;;5056289;28;20455;-68
2023/03/28 02:09:35;;;;;;;12.83;4.53;;;;;;;;;;5056477;28;20842;-68
2023/03/28 02:12:09;;;;;;;13.97;5.33;;;;;;;;;;5074437;28;20412;-68
2023/03/28 02:14:40;;;;;;;11.17;4.93;;;;;;;;;;5074248;28;20395;-68
2023/03/28 02:17:14;;;;;;;17.00;4.53;;;;;;;;;;5056181;28;20432;-68
2023/03/28 02:19:41;;;;;;;19.27;5.27;;;;;;;;;;5074460;28;20422;-68
2023/03/28 02:22:15;;;;;;;11.03;4.67;;;;;;;;;;5074120;28;20408;-68
2023/03/28 02:24:41;;;;;;;11.70;5.17;;;;;;;;;;5056133;28;20499;-68
2023/03/28 02:27:07;;;;;;;12.87;4.83;;;;;;;;;;5056043;28;20446;-68
2023/03/28 02:29:34;;;;;;;13.03;4.97;;;;;;;;;;5074160;28;20819;-68
2023/03/28 02:32:00;;;;;;;11.23;5.20;;;;;;;;;;5073896;28;20411;-68
2023/03/28 02:34:26;;;;;;;10.60;5.10;;;;;;;;;;5073927;28;20411;-68
2023/03/28 02:37:11;;;;;;;17.03;6.00;;;;;;;;;;5055908;28;20197;-68
2023/03/28 02:39:51;;;;;;;15.20;5.23;;;;;;;;;;5074022;28;20467;-68
2023/03/28 02:42:17;;;;;;;13.03;5.40;;;;;;;;;;5056123;28;20419;-67
2023/03/28 02:44:50;;;;;;;16.60;5.50;;;;;;;;;;5056014;28;20416;-68
2023/03/28 02:47:33;;;;;;;15.13;5.90;;;;;;;;;;5055624;28;20262;-68
2023/03/28 02:49:59;;;;;;;17.23;5.43;;;;;;;;;;5073657;28;20394;-68
2023/03/28 02:52:49;;;;;;;21.03;6.13;;;;;;;;;;5055982;28;20790;-68
2023/03/28 02:55:28;;;;;;;13.07;5.27;;;;;;;;;;5055798;28;20176;-68
2023/03/28 02:57:58;;;;;;;12.43;5.73;;;;;;;;;;5073691;28;20407;-68
2023/03/28 03:00:24;;;;;;;14.33;5.77;;;;;;;;;;5073858;28;20399;-68
2023/03/28 03:02:51;;;;;;;12.27;5.23;;;;;;;;;;5055613;28;20411;-68
2023/03/28 03:05:20;;;;;;;15.07;5.57;;;;;;;;;;5073549;28;20431;-69
2023/03/28 03:07:48;;;;;;;12.67;5.27;;;;;;;;;;5074112;28;20466;-68
2023/03/28 03:10:15;;;;;;;13.60;5.73;;;;;;;;;;5073456;28;20902;-68
2023/03/28 03:12:42;;;;;;;14.50;5.40;;;;;;;;;;5073617;28;20501;-68
2023/03/28 03:15:09;;;;;;;15.10;5.60;;;;;;;;;;5073743;28;20410;-68
2023/03/28 03:17:35;;;;;;;15.53;6.23;;;;;;;;;;5055595;28;20469;-68
2023/03/28 03:20:05;;;;;;;18.83;6.17;;;;;;;;;;5055504;28;20797;-68
2023/03/28 03:22:32;;;;;;;17.80;6.03;;;;;;;;;;5074643;28;20411;-68
2023/03/28 03:25:03;;;;;;;15.63;5.77;;;;;;;;;;5059839;28;20416;-69
2023/03/28 03:27:30;;;;;;;17.80;6.00;;;;;;;;;;5077861;28;20458;-68
2023/03/28 03:29:56;;;;;;;17.33;6.30;;;;;;;;;;5064976;28;20419;-68
2023/03/28 03:32:22;;;;;;;15.13;6.47;;;;;;;;;;5075468;28;20511;-68
2023/03/28 03:34:48;;;;;;;18.70;6.03;;;;;;;;;;5092563;28;20415;-68
2023/03/28 03:37:16;;;;;;;18.80;6.10;;;;;;;;;;5089146;28;20435;-68
2023/03/28 03:39:42;;;;;;;14.90;6.27;;;;;;;;;;5077960;28;20540;-68
2023/03/28 03:42:08;;;;;;;11.37;5.30;;;;;;;;;;5059465;28;20425;-68
2023/03/28 03:44:34;;;;;;;11.67;5.70;;;;;;;;;;5059267;28;20501;-69
2023/03/28 03:47:00;;;;;;;13.70;6.57;;;;;;;;;;5077347;28;20191;-68
2023/03/28 03:49:26;;;;;;;21.10;6.53;;;;;;;;;;5059362;28;20209;-68
2023/03/28 03:51:52;;;;;;;19.47;6.57;;;;;;;;;;5077464;28;20662;-68
2023/03/28 03:54:18;;;;;;;12.30;6.10;;;;;;;;;;5059457;28;20631;-68
2023/03/28 03:56:44;;;;;;;18.07;7.47;;;;;;;;;;5077127;28;20202;-68
2023/03/28 03:59:10;;;;;;;20.20;6.83;;;;;;;;;;5077524;28;20185;-68
2023/03/28 04:01:38;;;;;;;16.97;6.77;;;;;;;;;;5059679;28;20447;-68
2023/03/28 04:04:06;;;;;;;13.97;6.83;;;;;;;;;;5077702;28;20443;-68
2023/03/28 04:06:32;;;;;;;12.30;6.93;;;;;;;;;;5060702;28;20521;-68
2023/03/28 04:08:58;;;;;;;12.33;6.33;;;;;;;;;;5059444;28;20466;-68
2023/03/28 04:11:24;;;;;;;15.20;7.40;;;;;;;;;;5059052;28;20404;-68
2023/03/28 04:13:50;;;;;;;12.53;6.97;;;;;;;;;;5077341;28;20457;-69
2023/03/28 04:16:16;;;;;;;17.27;7.87;;;;;;;;;;5060033;28;20440;-68
2023/03/28 04:18:49;;;;;;;18.33;7.57;;;;;;;;;;5059698;28;20177;-68
2023/03/28 04:21:16;;;;;;;14.70;7.03;;;;;;;;;;5059340;28;20408;-68
2023/03/28 04:23:47;;;;;;;15.13;6.80;;;;;;;;;;5077192;28;20415;-69
2023/03/28 04:26:14;;;;;;;13.20;7.00;;;;;;;;;;5058663;28;20471;-68
2023/03/28 04:28:40;;;;;;;16.80;6.57;;;;;;;;;;5076482;28;21018;-69
2023/03/28 04:31:07;;;;;;;18.43;7.83;;;;;;;;;;5086262;28;20407;-69
2023/03/28 04:33:33;;;;;;;13.67;6.70;;;;;;;;;;5092777;28;20415;-70
2023/03/28 04:36:00;;;;;;;14.17;6.93;;;;;;;;;;5096316;28;20452;-70
2023/03/28 04:38:28;;;;;;;13.10;7.60;;;;;;;;;;5076052;28;20423;-70
2023/03/28 04:40:56;;;;;;;17.30;7.87;;;;;;;;;;5090685;28;20896;-68
2023/03/28 04:43:23;;;;;;;13.17;7.67;;;;;;;;;;5059031;28;20416;-69
2023/03/28 04:45:49;;;;;;;18.10;7.77;;;;;;;;;;5058429;28;20460;-69
2023/03/28 04:48:15;;;;;;;18.43;7.57;;;;;;;;;;5058288;28;20466;-70
2023/03/28 04:50:41;;;;;;;17.73;7.77;;;;;;;;;;5076485;28;20404;-68
2023/03/28 04:53:07;;;;;;;20.47;8.87;;;;;;;;;;5058623;28;20960;-68
2023/03/28 04:55:33;;;;;;;12.40;7.67;;;;;;;;;;5076300;28;20428;-68
2023/03/28 04:57:59;;;;;;;13.57;8.00;;;;;;;;;;5075917;28;20231;-68
2023/03/28 05:00:26;;;;;;;19.37;7.83;;;;;;;;;;5076073;28;20408;-68
2023/03/28 05:02:55;;;;;;;13.63;7.80;;;;;;;;;;5076109;28;20955;-68
2023/03/28 05:05:21;;;;;;;22.63;8.53;;;;;;;;;;5057663;28;20443;-69
2023/03/28 05:07:47;;;;;;;21.30;9.00;;;;;;;;;;5075980;28;20439;-68
2023/03/28 05:10:14;;;;;;;17.40;8.90;;;;;;;;;;5057992;28;20461;-68
2023/03/28 05:12:40;;;;;;;16.73;10.17;;;;;;;;;;5057824;28;20228;-68
2023/03/28 05:15:06;;;;;;;19.53;9.70;;;;;;;;;;5075886;28;20461;-69
2023/03/28 05:17:32;;;;;;;21.97;9.07;;;;;;;;;;5057717;28;20704;-69
2023/03/28 05:19:58;;;;;;;15.27;8.10;;;;;;;;;;5057705;28;20453;-68
2023/03/28 05:22:24;;;;;;;23.40;9.20;;;;;;;;;;5075626;28;20464;-69
2023/03/28 05:24:50;;;;;;;17.83;9.10;;;;;;;;;;5057653;28;20408;-68
2023/03/28 05:27:16;;;;;;;19.47;9.17;;;;;;;;;;5057548;28;20804;-68
2023/03/28 05:29:42;;;;;;;15.00;9.00;;;;;;;;;;5057639;28;20521;-69
2023/03/28 05:32:09;;;;;;;17.00;9.90;;;;;;;;;;5075871;28;20436;-68
2023/03/28 05:34:35;;;;;;;18.97;9.37;;;;;;;;;;5057256;28;20511;-68
2023/03/28 05:37:01;;;;;;;20.33;10.03;;;;;;;;;;5075276;28;20507;-68
2023/03/28 05:39:28;;;;;;;18.10;9.90;;;;;;;;;;5057625;28;20420;-68
2023/03/28 05:41:54;;;;;;;19.07;9.93;;;;;;;;;;5057143;28;20958;-68
2023/03/28 05:44:20;;;;;;;20.70;8.73;;;;;;;;;;5057283;28;20424;-69
2023/03/28 05:46:45;;;;;;;17.80;9.30;;;;;;;;;;5074634;28;20435;-68
2023/03/28 05:49:11;;;;;;;18.13;9.97;;;;;;;;;;5057339;28;20200;-68
2023/03/28 05:51:37;;;;;;;17.97;10.17;;;;;;;;;;5075077;28;20298;-68
2023/03/28 05:54:03;;;;;;;25.03;9.23;;;;;;;;;;5076058;28;20495;-69
2023/03/28 05:56:31;;;;;;;26.73;10.67;;;;;;;;;;5076064;28;20194;-68
2023/03/28 05:58:57;;;;;;;18.67;9.33;;;;;;;;;;5075361;28;20681;-70
2023/03/28 06:01:27;;;;;;;22.00;9.87;;;;;;;;;;5075068;28;20492;-68
2023/03/28 06:03:53;;;;;;;20.20;9.90;;;;;;;;;;5056808;28;20606;-68
2023/03/28 06:06:19;;;;;;;22.47;8.77;;;;;;;;;;5074584;28;20448;-68
2023/03/28 06:08:45;;;;;;;17.13;8.63;;;;;;;;;;5074653;28;20667;-68
2023/03/28 06:11:12;;;;;;;14.77;7.33;;;;;;;;;;5056715;28;20269;-68
2023/03/28 06:13:38;;;;;;;18.90;7.40;;;;;;;;;;5056905;28;20181;-68
2023/03/28 06:16:04;;;;;;;16.07;8.17;;;;;;;;;;5056632;28;20541;-68
2023/03/28 06:18:30;;;;;;;14.27;8.33;;;;;;;;;;5056401;28;20209;-68
2023/03/28 06:20:56;;;;;;;15.97;7.00;;;;;;;;;;5056313;28;20243;-68
2023/03/28 06:23:22;;;;;;;23.93;9.47;;;;;;;;;;5074414;28;20636;-68
2023/03/28 06:25:48;;;;;;;30.57;15.97;;;;;;;;;;5056013;28;20739;-68
2023/03/28 06:28:14;;;;;;;72.47;39.07;;;;;;;;;;5074304;28;20243;-71
2023/03/28 06:30:40;;;;;;;52.13;27.67;;;;;;;;;;5055853;28;20181;-69
2023/03/28 06:33:06;;;;;;;28.30;14.93;;;;;;;;;;5073512;28;20322;-69
2023/03/28 06:35:33;;;;;;;19.10;9.33;;;;;;;;;;5073556;28;20193;-70
2023/03/28 06:37:59;;;;;;;20.30;9.20;;;;;;;;;;5055505;28;20268;-69
2023/03/28 06:40:25;;;;;;;21.20;9.57;;;;;;;;;;5073892;28;20177;-69
2023/03/28 06:42:51;;;;;;;15.63;7.47;;;;;;;;;;5073374;28;20181;-69
2023/03/28 06:45:18;;;;;;;18.80;9.23;;;;;;;;;;5073159;28;20205;-70
2023/03/28 06:47:44;;;;;;;10.53;5.93;;;;;;;;;;5055229;28;20201;-70
2023/03/28 06:50:11;;;;;;;11.87;5.83;;;;;;;;;;5055228;28;20180;-68
2023/03/28 06:52:37;;;;;;;11.07;5.73;;;;;;;;;;5055254;28;20173;-69
2023/03/28 06:55:03;;;;;;;11.43;6.03;;;;;;;;;;5055093;28;20618;-69
2023/03/28 06:57:29;;;;;;;12.47;6.87;;;;;;;;;;5073010;28;20545;-69
2023/03/28 06:59:55;;;;;;;15.00;7.07;;;;;;;;;;5055148;28;20208;-69
2023/03/28 07:02:21;;;;;;;14.83;7.37;;;;;;;;;;5055089;28;20219;-70
2023/03/28 07:04:47;;;;;;;14.83;6.63;;;;;;;;;;5073157;28;20189;-69
2023/03/28 07:07:13;;;;;;;11.40;7.03;;;;;;;;;;5054794;28;20220;-69
2023/03/28 07:09:39;;;;;;;19.63;7.77;;;;;;;;;;5073285;28;20307;-69
2023/03/28 07:12:05;;;;;;;15.30;9.07;;;;;;;;;;5073085;28;20201;-69
2023/03/28 07:14:31;;;;;;;15.27;7.67;;;;;;;;;;5094933;22;20229;-68
2023/03/28 07:16:57;;;;;;;19.10;8.67;;;;;;;;;;5073140;28;20170;-67
2023/03/28 07:19:23;;;;;;;12.67;6.53;;;;;;;;;;5073191;28;20177;-67
2023/03/28 07:21:49;;;;;;;12.20;6.33;;;;;;;;;;5072899;28;20258;-67
2023/03/28 07:24:15;;;;;;;15.43;6.63;;;;;;;;;;5073062;28;20285;-68
2023/03/28 07:26:41;;;;;;;13.27;5.93;;;;;;;;;;5055142;28;20177;-67
2023/03/28 07:29:07;;;;;;;20.63;8.13;;;;;;;;;;5072727;28;20198;-67
2023/03/28 07:31:33;;;;;;;12.27;6.27;;;;;;;;;;5054850;28;20177;-67
2023/03/28 07:33:59;;;;;;;10.27;6.03;;;;;;;;;;5072712;28;20221;-67
2023/03/28 07:36:26;;;;;;;14.23;5.97;;;;;;;;;;5072774;28;20296;-68
2023/03/28 07:38:52;;;;;;;14.43;6.70;;;;;;;;;;5054850;28;20565;-68
2023/03/28 07:41:18;;;;;;;15.83;7.33;;;;;;;;;;5072825;28;20182;-68
2023/03/28 07:43:44;;;;;;;13.93;6.10;;;;;;;;;;5055188;28;20198;-67
2023/03/28 07:46:13;;;;;;;11.70;6.20;;;;;;;;;;5055821;28;20192;-68
2023/03/28 07:48:42;;;;;;;16.87;6.83;;;;;;;;;;5072993;28;20205;-67
2023/03/28 07:51:09;;;;;;;14.73;5.80;;;;;;;;;;5072696;28;20177;-65
2023/03/28 07:53:39;;;;;;;12.07;6.40;;;;;;;;;;5072515;28;20201;-65
2023/03/28 07:56:09;;;;;;;11.37;4.70;;;;;;;;;;5072582;28;20555;-65
2023/03/28 07:58:35;;;;;;;12.20;5.90;;;;;;;;;;5072534;28;20666;-65
2023/03/28 08:01:05;;;;;;;12.73;5.83;;;;;;;;;;5072742;28;20178;-67
2023/03/28 08:03:31;;;;;;;13.73;6.33;;;;;;;;;;5073059;28;20236;-67
2023/03/28 08:06:01;;;;;;;13.20;6.53;;;;;;;;;;5054558;28;20185;-67
2023/03/28 08:08:27;;;;;;;11.63;6.10;;;;;;;;;;5073302;28;20201;-66
2023/03/28 08:10:53;;;;;;;15.77;6.77;;;;;;;;;;5076362;28;20540;-68
2023/03/28 08:13:19;;;;;;;17.00;6.70;;;;;;;;;;5059689;28;20305;-67
2023/03/28 08:15:48;;;;;;;12.97;7.07;;;;;;;;;;5059013;28;20170;-67
2023/03/28 08:18:19;;;;;;;18.43;8.03;;;;;;;;;;5076348;28;20273;-68
2023/03/28 08:20:45;;;;;;;15.43;7.87;;;;;;;;;;5058886;28;20174;-67
2023/03/28 08:23:11;;;;;;;22.23;8.33;;;;;;;;;;5076055;28;20697;-68
2023/03/28 08:25:37;;;;;;;20.43;8.27;;;;;;;;;;5077039;28;20196;-66
2023/03/28 08:28:03;;;;;;;25.60;8.73;;;;;;;;;;5060026;28;20205;-66
2023/03/28 08:30:29;;;;;;;17.63;7.50;;;;;;;;;;5077680;28;20178;-66
2023/03/28 08:32:55;;;;;;;17.77;7.47;;;;;;;;;;5077322;28;20256;-65
2023/03/28 08:35:21;;;;;;;16.30;7.60;;;;;;;;;;5077134;28;20618;-67
2023/03/28 08:37:48;;;;;;;15.97;10.17;;;;;;;;;;5077838;28;20188;-66
2023/03/28 08:40:16;;;;;;;14.73;6.63;;;;;;;;;;5077325;28;20185;-67
2023/03/28 08:42:48;;;;;;;14.60;7.27;;;;;;;;;;5077260;28;20178;-66
2023/03/28 08:45:14;;;;;;;13.60;7.87;;;;;;;;;;5076706;28;20186;-68
2023/03/28 08:47:53;;;;;;;16.30;7.53;;;;;;;;;;5076085;28;20204;-68
2023/03/28 08:50:24;;;;;;;17.17;7.53;;;;;;;;;;5075461;28;20672;-67
2023/03/28 08:52:51;;;;;;;19.00;6.90;;;;;;;;;;5057489;28;20257;-67
2023/03/28 08:55:37;;;;;;;7.60;5.30;;;;;;;;;;5057642;28;20605;-67
2023/03/28 08:58:03;;;;;;;11.20;4.47;;;;;;;;;;5058348;28;20170;-68
2023/03/28 09:00:30;;;;;;;10.10;5.17;;;;;;;;;;5058125;28;20185;-66
2023/03/28 09:02:56;;;;;;;12.23;4.63;;;;;;;;;;5058708;28;20180;-66
2023/03/28 09:05:28;;;;;;;9.83;3.93;;;;;;;;;;5076890;28;20166;-65
2023/03/28 09:07:54;;;;;;;7.97;3.80;;;;;;;;;;5075761;28;20197;-68
2023/03/28 09:10:35;;;;;;;9.70;4.07;;;;;;;;;;5075601;28;20184;-68
2023/03/28 09:13:20;;;;;;;8.53;3.80;;;;;;;;;;5057596;28;20185;-66
2023/03/28 09:16:07;;;;;;;15.17;3.13;;;;;;;;;;5057559;28;20174;-65
2023/03/28 09:18:50;;;;;;;9.53;3.20;;;;;;;;;;5074953;28;20239;-66
2023/03/28 09:21:22;;;;;;;9.87;3.40;;;;;;;;;;5073925;28;20260;-68
2023/03/28 09:24:13;;;;;;;11.20;3.43;;;;;;;;;;5075164;28;20201;-68
2023/03/28 09:27:01;;;;;;;10.37;3.80;;;;;;;;;;5075200;28;20166;-67
2023/03/28 09:29:27;;;;;;;9.70;2.90;;;;;;;;;;5074705;28;20193;-67
2023/03/28 09:31:59;;;;;;;8.23;2.63;;;;;;;;;;5056920;28;20182;-64
2023/03/28 09:34:27;;;;;;;10.50;3.07;;;;;;;;;;5074635;28;20197;-66
2023/03/28 09:36:57;;;;;;;9.03;3.23;;;;;;;;;;5075106;28;20181;-66
2023/03/28 09:39:36;;;;;;;4.93;2.63;;;;;;;;;;5075910;28;20194;-66
2023/03/28 09:42:02;;;;;;;6.87;2.60;;;;;;;;;;5074687;28;20272;-66
2023/03/28 09:44:32;;;;;;;5.73;2.23;;;;;;;;;;5074441;28;20202;-66
2023/03/28 09:47:00;;;;;;;5.67;2.33;;;;;;;;;;5074360;28;20202;-66
2023/03/28 09:49:26;;;;;;;8.27;2.50;;;;;;;;;;5074292;28;20201;-65
2023/03/28 09:51:54;;;;;;;9.20;3.30;;;;;;;;;;5074388;28;20640;-65
2023/03/28 09:54:27;;;;;;;5.33;2.53;;;;;;;;;;5074297;28;20197;-67
2023/03/28 09:56:57;;;;;;;4.83;2.27;;;;;;;;;;5074656;28;20166;-66
2023/03/28 09:59:25;;;;;;;8.03;2.73;;;;;;;;;;5056539;28;20542;-65
2023/03/28 10:01:52;;;;;;;4.90;2.27;;;;;;;;;;5074005;28;20186;-66
2023/03/28 10:04:19;;;;;;;11.37;3.20;;;;;;;;;;5056038;28;20202;-66
2023/03/28 10:06:46;;;;;;;7.83;3.00;;;;;;;;;;5073962;28;20173;-67
2023/03/28 10:09:12;;;;;;;7.10;2.60;;;;;;;;;;5055917;28;20293;-66
2023/03/28 10:11:49;;;;;;;8.27;3.00;;;;;;;;;;5056036;28;20286;-66
2023/03/28 10:14:31;;;;;;;7.40;2.83;;;;;;;;;;5073720;28;20213;-65
2023/03/28 10:17:00;;;;;;;7.07;3.37;;;;;;;;;;5073757;28;20174;-66
2023/03/28 10:19:31;;;;;;;7.33;3.33;;;;;;;;;;5073684;28;20656;-66
2023/03/28 10:21:57;;;;;;;9.87;3.70;;;;;;;;;;5073795;28;20151;-65
2023/03/28 10:24:24;;;;;;;10.03;3.50;;;;;;;;;;5055923;28;20216;-65
2023/03/28 10:26:50;;;;;;;6.57;2.30;;;;;;;;;;5055658;28;20198;-66
2023/03/28 10:29:17;;;;;;;9.97;2.67;;;;;;;;;;5073355;28;20765;-66
2023/03/28 10:31:47;;;;;;;4.57;2.17;;;;;;;;;;5055266;28;20173;-66
2023/03/28 10:34:26;;;;;;;8.37;2.30;;;;;;;;;;5073468;28;20266;-65
2023/03/28 10:36:52;;;;;;;4.67;2.20;;;;;;;;;;5073487;28;20166;-66
2023/03/28 10:39:21;;;;;;;5.00;2.27;;;;;;;;;;5073821;28;20208;-66
2023/03/28 10:42:00;;;;;;;3.90;2.20;;;;;;;;;;5073804;28;20194;-65
2023/03/28 10:44:29;;;;;;;5.40;2.10;;;;;;;;;;5055844;28;20194;-65
2023/03/28 10:46:56;;;;;;;6.20;1.90;;;;;;;;;;5073835;28;20173;-65
2023/03/28 10:49:22;;;;;;;4.87;2.30;;;;;;;;;;5073283;28;20198;-64
2023/03/28 10:51:48;;;;;;;7.63;2.30;;;;;;;;;;5055259;28;20178;-65
2023/03/28 10:54:47;;;;;;;5.90;2.33;;;;;;;;;;5073290;28;20607;-65
2023/03/28 10:57:19;;;;;;;4.60;2.07;;;;;;;;;;5029113;28;20235;-65
2023/03/28 10:59:49;;;;;;;7.10;1.90;;;;;;;;;;5073092;28;20216;-66
2023/03/28 11:02:38;;;;;;;9.33;2.23;;;;;;;;;;5055360;28;20590;-65
2023/03/28 11:05:24;;;;;;;8.73;2.00;;;;;;;;;;5055026;28;20251;-66
2023/03/28 11:07:50;;;;;;;4.37;2.27;;;;;;;;;;5055088;28;20220;-65
2023/03/28 11:10:22;;;;;;;12.40;2.30;;;;;;;;;;5073020;28;20258;-65
2023/03/28 11:13:11;;;;;;;6.90;2.10;;;;;;;;;;5073092;28;20178;-65
2023/03/28 11:15:43;;;;;;;4.00;2.03;;;;;;;;;;5072943;28;20245;-65
2023/03/28 11:18:09;;;;;;;5.10;2.20;;;;;;;;;;5054974;28;20181;-66
2023/03/28 11:20:43;;;;;;;11.27;2.30;;;;;;;;;;5054897;28;20550;-66
2023/03/28 11:23:17;;;;;;;5.03;2.00;;;;;;;;;;5072873;28;20679;-65
2023/03/28 11:26:02;;;;;;;5.57;1.83;;;;;;;;;;5073212;28;20673;-64
2023/03/28 11:28:37;;;;;;;4.03;2.17;;;;;;;;;;5072715;28;20201;-63
2023/03/28 11:31:03;;;;;;;9.03;2.60;;;;;;;;;;5054784;28;20612;-65
2023/03/28 11:33:43;;;;;;;3.33;1.83;;;;;;;;;;5072769;28;20194;-66
2023/03/28 11:36:15;;;;;;;3.97;1.80;;;;;;;;;;5073163;28;20248;-65
2023/03/28 11:38:42;;;;;;;7.17;3.00;;;;;;;;;;5072790;28;20174;-65
2023/03/28 11:41:14;;;;;;;4.70;2.20;;;;;;;;;;5073027;28;20572;-65
2023/03/28 11:43:49;;;;;;;5.93;1.93;;;;;;;;;;5056839;28;20554;-66
2023/03/28 11:46:48;;;;;;;5.77;1.83;;;;;;;;;;5059137;28;20189;-66
2023/03/28 11:49:22;;;;;;;6.17;2.20;;;;;;;;;;5026842;28;20239;-66
2023/03/28 11:52:06;;;;;;;5.63;2.00;;;;;;;;;;5076971;28;20315;-66
2023/03/28 11:54:40;;;;;;;4.73;2.30;;;;;;;;;;5076602;28;20669;-66
2023/03/28 11:57:10;;;;;;;7.73;3.23;;;;;;;;;;5058730;28;20253;-65
2023/03/28 11:59:36;;;;;;;5.57;2.30;;;;;;;;;;5058659;28;20193;-65
2023/03/28 12:02:26;;;;;;;5.37;1.97;;;;;;;;;;5076416;28;20648;-65
2023/03/28 12:04:58;;;;;;;7.23;2.20;;;;;;;;;;5076241;28;20283;-65
2023/03/28 12:07:29;;;;;;;4.20;2.10;;;;;;;;;;5058296;28;20188;-66
2023/03/28 12:10:02;;;;;;;7.57;2.30;;;;;;;;;;5076504;28;20585;-64
2023/03/28 12:12:51;;;;;;;4.43;1.97;;;;;;;;;;5058357;28;20170;-64
2023/03/28 12:15:19;;;;;;;7.93;2.40;;;;;;;;;;5038764;28;20209;-65
2023/03/28 12:17:47;;;;;;;7.87;2.43;;;;;;;;;;5076364;28;20174;-65
2023/03/28 12:20:16;;;;;;;7.57;2.80;;;;;;;;;;5076022;28;20182;-65
2023/03/28 12:22:51;;;;;;;6.37;2.40;;;;;;;;;;5076108;28;20185;-64
2023/03/28 12:25:30;;;;;;;8.47;2.63;;;;;;;;;;5075914;28;20230;-65
2023/03/28 12:27:58;;;;;;;4.80;2.70;;;;;;;;;;5075991;28;20186;-65
2023/03/28 12:30:29;;;;;;;7.83;2.63;;;;;;;;;;5076058;28;20174;-64
2023/03/28 12:32:55;;;;;;;4.93;2.13;;;;;;;;;;5076271;28;20162;-68
2023/03/28 12:35:54;;;;;;;4.17;2.30;;;;;;;;;;5075696;28;20467;-66
2023/03/28 12:38:46;;;;;;;6.37;2.40;;;;;;;;;;5025326;28;20185;-65
2023/03/28 12:41:16;;;;;;;10.93;4.97;;;;;;;;;;5055118;28;20280;-65
2023/03/28 12:43:48;;;;;;;22.43;12.73;;;;;;;;;;5058085;28;20198;-66
2023/03/28 12:46:16;;;;;;;20.97;14.93;;;;;;;;;;5075821;28;20213;-66
2023/03/28 12:48:54;;;;;;;8.30;3.50;;;;;;;;;;5075566;28;20226;-64
2023/03/28 12:51:26;;;;;;;15.27;7.93;;;;;;;;;;5075835;28;20166;-65
2023/03/28 12:54:06;;;;;;;8.93;4.40;;;;;;;;;;5057313;28;20208;-65
2023/03/28 12:56:32;;;;;;;6.07;3.03;;;;;;;;;;5057757;28;20173;-66
2023/03/28 12:58:58;;;;;;;14.70;12.13;;;;;;;;;;5075644;28;20247;-64
2023/03/28 13:01:39;;;;;;;5.17;2.73;;;;;;;;;;5075366;28;20597;-66
2023/03/28 13:04:14;;;;;;;5.97;2.70;;;;;;;;;;5057595;28;20241;-66
2023/03/28 13:06:49;;;;;;;4.23;2.90;;;;;;;;;;5075267;28;20181;-66
2023/03/28 13:09:40;;;;;;;8.37;3.50;;;;;;;;;;5075184;28;20196;-66
2023/03/28 13:12:23;;;;;;;10.37;5.03;;;;;;;;;;5075019;28;20158;-65
2023/03/28 13:15:03;;;;;;;9.20;4.70;;;;;;;;;;5074853;28;20221;-64
2023/03/28 13:17:36;;;;;;;9.30;3.67;;;;;;;;;;5057519;28;20656;-64
2023/03/28 13:20:08;;;;;;;11.50;4.43;;;;;;;;;;5074976;28;20207;-66
2023/03/28 13:22:39;;;;;;;9.63;4.83;;;;;;;;;;5075106;28;20603;-67
2023/03/28 13:25:19;;;;;;;6.57;4.13;;;;;;;;;;5056982;28;20235;-64
2023/03/28 13:27:45;;;;;;;8.53;3.77;;;;;;;;;;5056701;28;20226;-65
2023/03/28 13:30:19;;;;;;;5.23;3.23;;;;;;;;;;5056915;28;20273;-64
2023/03/28 13:32:48;;;;;;;6.17;3.43;;;;;;;;;;5075418;22;20229;-68
2023/03/28 13:35:33;;;;;;;3.70;2.30;;;;;;;;;;5073395;28;20644;-69
2023/03/28 13:38:17;;;;;;;7.30;3.13;;;;;;;;;;5073329;28;20209;-70
2023/03/28 13:40:47;;;;;;;7.40;3.10;;;;;;;;;;5074859;28;20659;-69
2023/03/28 13:43:27;;;;;;;7.43;2.77;;;;;;;;;;5073372;28;20210;-69
2023/03/28 13:45:56;;;;;;;6.17;2.07;;;;;;;;;;5073227;28;20188;-69
2023/03/28 13:48:25;;;;;;;9.27;2.73;;;;;;;;;;5073158;28;20210;-68
2023/03/28 13:50:53;;;;;;;4.57;2.70;;;;;;;;;;5073242;28;20177;-69
2023/03/28 13:53:19;;;;;;;5.20;2.93;;;;;;;;;;5073110;28;20206;-69
2023/03/28 13:55:45;;;;;;;8.13;2.40;;;;;;;;;;5074317;28;20186;-69
2023/03/28 13:58:12;;;;;;;5.30;2.37;;;;;;;;;;5073138;28;20618;-69
2023/03/28 14:00:38;;;;;;;4.37;1.87;;;;;;;;;;5073003;28;20189;-69
2023/03/28 14:03:11;;;;;;;3.97;2.03;;;;;;;;;;5074119;28;20194;-69
2023/03/28 14:05:41;;;;;;;3.13;2.40;;;;;;;;;;5072695;28;20632;-69
2023/03/28 14:08:13;;;;;;;4.37;1.63;;;;;;;;;;5072746;28;20781;-69
2023/03/28 14:10:42;;;;;;;4.47;2.20;;;;;;;;;;5072599;28;20185;-69
2023/03/28 14:13:13;;;;;;;4.10;2.53;;;;;;;;;;5074036;28;20198;-69
2023/03/28 14:15:40;;;;;;;5.30;2.27;;;;;;;;;;5073737;28;20660;-69
2023/03/28 14:18:11;;;;;;;5.57;2.10;;;;;;;;;;5074338;28;20174;-69
2023/03/28 14:20:37;;;;;;;2.60;2.10;;;;;;;;;;5072595;28;20174;-70
2023/03/28 14:23:05;;;;;;;3.47;1.90;;;;;;;;;;5073764;28;20280;-69
2023/03/28 14:25:32;;;;;;;6.47;2.23;;;;;;;;;;5072509;28;20181;-69
2023/03/28 14:28:06;;;;;;;5.00;1.90;;;;;;;;;;5072355;28;20237;-69
2023/03/28 14:30:38;;;;;;;7.13;2.57;;;;;;;;;;5072360;28;20174;-69
2023/03/28 14:33:17;;;;;;;7.33;2.37;;;;;;;;;;5072059;28;20210;-69
2023/03/28 14:35:44;;;;;;;4.57;2.17;;;;;;;;;;5072379;28;20166;-69
2023/03/28 14:38:16;;;;;;;9.87;2.27;;;;;;;;;;5073517;28;20170;-69
2023/03/28 14:40:43;;;;;;;2.97;1.90;;;;;;;;;;5073681;28;20163;-69
2023/03/28 14:43:10;;;;;;;6.57;3.07;;;;;;;;;;5073301;28;20204;-69
2023/03/28 14:45:37;;;;;;;7.57;2.77;;;;;;;;;;5073331;28;20174;-69
2023/03/28 14:48:06;;;;;;;4.37;2.27;;;;;;;;;;5073255;28;20287;-69
2023/03/28 14:50:34;;;;;;;4.83;2.20;;;;;;;;;;5073108;28;20182;-69